x

Portland 12 Nm Southeast Of Portland,me (44007) Wave Buoy

10:50am - Thu 8th Dec 2016 All times are EST. -5 hours from GMT.

  • Sig Wave height 2.6ft
  • Swell Direction
  • Peak Period 10s
  • Average Period 5s
  • Wind
    16mph, 18mph gusts
  • Sea Temp 47°f
  • Air Temp 40°f
  • Sea Pressure 1010.1mb
  • Portland 12 Nm Southeast Of Portland,me
  • Portland 12 Nm Southeast Of Portland,me

More Historic Weather Station data

Upgrade to MSW Pro to gain access to the past 30 days of data for over 8000 Wavebouys and Weather Stations around the globe.

Join Pro

Comparision Forecast

View Surf forecast
   
Thu 12/08 10:50am 2.5ft 10s 5s 16 18 mph 1010.1mb 47f 40f
9:50am 2.5ft 11s 5s 16 18 mph 1011.4mb 47f 40f
8:50am 2ft 10s 5s 13 16 mph 1011.6mb 48f 39f
7:50am 1.6ft 11s 5s 11 13 mph 1011.6mb 48f 38f
6:50am 1.6ft 11s 5s 9 11 mph 1012mb 48f 37f
5:50am 1.6ft 11s 5s 9 13 mph 1012.4mb 48f 37f
4:50am 1.6ft 8s 5s 9 11 mph 1012.2mb 48f 37f
3:50am 1.6ft 8s 5s 11 13 mph 1012.7mb 48f 38f
2:50am 1.6ft 8s 5s 9 11 mph 1013.3mb 48f 38f
Wed 12/07 10:50pm 2ft 10s 4s 9 13 mph 1014.7mb 48f 38f
9:50pm 2ft 10s 4s 7 9 mph 1015.1mb 48f 36f
8:50pm 2ft 11s 4s 9 11 mph 1014.9mb 48f 38f
7:50pm 1.6ft 9s 5s 16 18 mph 1015.1mb 48f 38f
6:50pm 1.6ft 9s 6s 13 16 mph 1015mb 48f 39f
5:50pm 1.6ft 11s 6s 2 4 mph 1014.6mb 48f 36f
4:50pm 1.6ft 11s 5s 7 9 mph 1015mb 48f 36f
3:50pm 1.6ft 11s 5s 7 11 mph 1014.4mb 48f 36f
2:50pm 2ft 9s 5s 7 9 mph 1013.8mb 48f 37f
1:50pm 2.5ft 9s 5s 7 9 mph 1014.1mb 48f 36f
11:50am 2.5ft 9s 5s 7 9 mph 1015.1mb 49f 35f
10:50am 2.5ft 10s 5s 13 16 mph 1015.7mb 49f 34f
9:50am 2ft 10s 4s 13 16 mph 1016.3mb 49f 33f
8:50am 2.5ft 11s 4s 13 16 mph 1016mb 49f 33f
7:50am 2.5ft 10s 4s 13 16 mph 1015.4mb 49f 35f
6:50am 2.5ft 10s 4s 13 16 mph 1014.7mb 49f 35f
5:50am 2.5ft 10s 4s 13 16 mph 1014.5mb 49f 35f
4:50am 2.5ft 11s 4s 16 20 mph 1014mb 49f 36f
3:50am 2.5ft 11s 4s 16 20 mph 1014.6mb 49f 36f
2:50am 2ft 11s 4s 13 16 mph 1015.8mb 49f 35f
1:50am 2ft 11s 4s 13 16 mph 1016mb 49f 35f
12:50am 2ft 11s 4s 13 18 mph 1015.8mb 49f 35f
Tue 12/06 11:50pm 2ft 11s 4s 13 16 mph 1016.5mb 49f 36f
10:50pm 1.6ft 11s 5s 13 16 mph 1017.2mb 49f 36f
9:50pm 1.6ft 11s 5s 7 11 mph 1017.9mb 49f 37f
8:50pm 2ft 11s 5s 11 13 mph 1017.4mb 49f 37f
7:50pm 1.6ft 11s 5s 9 13 mph 1017.6mb 49f 37f
6:50pm 1.6ft 11s 5s 9 13 mph 1017.5mb 49f 38f
5:50pm 1.6ft 11s 5s 7 13 mph 1017.7mb 49f 38f
4:50pm 1.6ft 11s 6s 7 9 mph 1017.4mb 49f 38f
3:50pm 1.3ft 11s 5s 7 9 mph 1017.8mb 49f 38f
2:50pm 1.6ft 11s 5s 7
mph
1018mb 49f 39f
1:50pm 1.6ft 11s 4s 7 11 mph 1018.2mb 49f 38f
12:50pm 1.6ft 10s 5s 11 13 mph 1018.4mb 49f 37f
11:50am 1.3ft 10s 4s 11 13 mph 1019.1mb 49f 36f
10:50am 1.6ft 11s 5s 11 13 mph 1019.3mb 49f 36f
9:50am 1.6ft 10s 6s 11 16 mph 1019.7mb 49f 36f
8:50am 1.3ft 11s 6s 9 11 mph 1019.5mb 48f 37f
7:50am 1.3ft 11s 6s 4 9 mph 1019.3mb 48f 36f
6:50am 1.3ft 11s 6s 4 7 mph 1018.7mb 48f 36f
5:50am 1.3ft 12s 5s 4 7 mph 1018.5mb 48f 35f
4:50am 1.3ft 12s 5s 7 9 mph 1017.8mb 48f 35f
3:50am 1.3ft 11s 5s 9 11 mph 1017.3mb 49f 36f
2:50am 1.3ft 11s 5s 7 9 mph 1016.9mb 48f 34f
1:50am 1.6ft 11s 5s 9 11 mph 1016mb 49f 34f
12:50am 1.6ft 10s 4s 11 13 mph 1014.7mb 49f 32f
Mon 12/05 11:50pm 2ft 11s 5s 13 16 mph 1014.2mb 49f 32f
10:50pm 2ft 10s 5s 13 16 mph 1014mb 49f 32f
9:50pm 2ft 9s 5s 11 16 mph 1013.6mb 49f 32f
8:50pm 2ft 11s 5s 11 16 mph 1012.9mb 49f 32f
7:50pm 2.5ft 5s 5s 13 16 mph 1013.1mb 49f 31f
6:50pm 2.5ft 5s 5s 11 13 mph 1012.8mb 49f 33f
5:50pm 2.5ft 4s 4s 9 11 mph 1012.7mb 49f 33f
4:50pm 2ft 4s 4s 9 13 mph 1012.9mb 49f 34f
3:50pm 2ft 3s 4s 9 11 mph 1012.9mb 49f 34f
2:50pm 2ft 3s 3s 11 13 mph 1012.5mb 49f 36f
1:50pm 1.6ft 8s 4s 13 18 mph 1012.6mb 49f 39f
12:50pm 1.3ft 8s 4s 9 13 mph 1013.5mb 49f 37f
11:50am 1.3ft 8s 5s 9 13 mph 1014.8mb 49f 37f
10:50am 1.3ft 8s 5s 9 11 mph 1016.1mb 49f 37f
9:50am 1.3ft 11s 5s 7 9 mph 1017.5mb 49f 37f
8:50am 1.3ft 9s 5s 7 11 mph 1018.3mb 49f 36f
7:50am 1.3ft 11s 4s 7 9 mph 1018.9mb 49f 36f
6:50am 1.3ft 9s 4s 11 16 mph 1018.4mb 49f 34f
5:50am 1.3ft 11s 4s 4 9 mph 1020.2mb 49f 34f
4:50am 1.3ft 12s 4s 4 9 mph 1020.5mb 49f 33f
3:50am 1.3ft 12s 4s 9 13 mph 1019.6mb 49f 33f
2:50am 1.3ft 3s 3s 9 13 mph 1020.2mb 49f 33f
1:50am 1.6ft 3s 3s 9 13 mph 1021mb 49f 34f
12:50am 1.6ft 3s 3s 11 16 mph 1020.9mb 49f 34f
Sun 12/04 11:50pm 1.6ft 3s 3s 13 18 mph 1021.1mb 49f 34f
10:50pm 1.3ft 3s 3s 16 18 mph 1021.7mb 49f 33f
9:50pm 1.6ft 3s 3s 13 18 mph 1022.3mb 49f 34f
8:50pm 1.6ft 3s 3s 18 22 mph 1022.8mb 49f 34f
7:50pm 1.6ft 3s 3s 20 22 mph 1022mb 49f 35f
6:50pm 2ft 3s 3s 20 25 mph 1021.8mb 49f 36f
5:50pm 2ft 3s 3s 22 27 mph 1021.4mb 49f 37f